Main page


Airports :

Mangalore, India

Mangalore Airport

latitude: 12-55N, longitude: 074-53E, elevation: 102 m

Current weather observation

The report was made 19 minutes ago, at 08:30 UTC
Wind 7 kt from the West
Temperature 31°C
Humidity 71%
Pressure 1009 hPa
Visibility: 5000 m
Scattered clouds at a height of 1500 ft

METAR: VOML 270830Z 27007KT 5000 HZ SCT015 31/25 Q1009 NOSIG

Time: 14:19 (08:49 UTC)


The report was made 49 minutes ago, at 08:00 UTC
Forecast valid from 27 at 09 UTC to 27 at 18 UTC
Wind 5 kt from the West/Northwest
Visibility: 6000 m
Few clouds at a height of 1500 ft

TAF: VOML 270800Z 2709/2718 29005KT 6000 FEW015

Weather observations and forecasts of more than 4000 airports (METAR and TAF reports).

The available stations are represented by yellow and red dots on the map.

Hover mouse over dot to see the name of the station.

Then click to see weather observations and forecasts.

To change the map : click on the green buttons with a black cross to zoom in, on the green button with a dash to zoom out, or on the green arrows for adjacent maps.